createdAt,value
2019-04-23T00:01:25.429Z,17.80
2019-04-23T00:03:29.737Z,18.11
2019-04-23T00:06:06.946Z,17.91
2019-04-23T00:08:37.735Z,17.40
2019-04-23T00:11:08.806Z,17.40
2019-04-23T00:13:38.992Z,17.41
2019-04-23T00:18:42.678Z,17.50
2019-04-23T00:21:23.538Z,17.37
2019-04-23T00:23:57.170Z,17.20
2019-04-23T00:26:34.372Z,17.04
2019-04-23T00:29:18.996Z,16.94
2019-04-23T00:31:57.217Z,17.13
2019-04-23T00:34:26.050Z,16.62
2019-04-23T00:36:53.239Z,16.63
2019-04-23T00:39:23.676Z,16.63
2019-04-23T00:41:58.659Z,16.95
2019-04-23T00:44:32.515Z,17.35
2019-04-23T00:46:55.992Z,17.35
2019-04-23T00:49:30.948Z,17.15
2019-04-23T00:52:05.858Z,17.41
2019-04-23T00:54:32.707Z,17.20
2019-04-23T00:57:07.530Z,17.20
2019-04-23T00:59:39.092Z,16.97
2019-04-23T01:02:02.716Z,16.95
2019-04-23T01:04:40.352Z,16.93
2019-04-23T01:07:09.586Z,16.87
2019-04-23T01:09:45.625Z,16.87
2019-04-23T01:12:15.980Z,16.89
2019-04-23T01:14:38.620Z,17.03
2019-04-23T01:17:22.136Z,17.12
2019-04-23T01:20:06.390Z,17.12
2019-04-23T01:22:08.583Z,16.88
2019-04-23T01:24:46.699Z,16.70
2019-04-23T01:28:00.372Z,16.40
2019-04-23T01:30:17.908Z,16.25
2019-04-23T01:32:43.742Z,16.07
2019-04-23T01:37:58.079Z,16.53
2019-04-23T01:40:19.111Z,16.22
2019-04-23T01:47:57.659Z,16.67
2019-04-23T01:50:38.558Z,16.67
2019-04-23T01:53:05.635Z,16.55
2019-04-23T01:55:26.302Z,16.30
2019-04-23T01:58:18.774Z,16.30
2019-04-23T02:00:39.163Z,16.06
2019-04-23T02:03:01.125Z,16.07
2019-04-23T02:05:35.241Z,16.00
2019-04-23T02:08:11.120Z,15.98
2019-04-23T02:13:16.392Z,15.99
2019-04-23T02:18:15.725Z,15.83
2019-04-23T02:20:55.182Z,15.84
2019-04-23T02:26:10.808Z,15.73
2019-04-23T02:28:49.661Z,15.53
2019-04-23T02:31:43.088Z,15.58
2019-04-23T02:34:18.572Z,15.66
2019-04-23T02:36:11.093Z,15.62
2019-04-23T02:41:26.578Z,15.43
2019-04-23T02:44:04.917Z,15.48
2019-04-23T02:46:17.678Z,15.68
2019-04-23T02:54:15.914Z,15.48
2019-04-23T03:04:14.260Z,15.72
2019-04-23T03:06:41.141Z,15.51
2019-04-23T03:09:27.757Z,15.91
2019-04-23T03:19:47.239Z,15.57
2019-04-23T03:45:20.893Z,15.26
2019-04-23T03:57:40.260Z,15.10
2019-04-23T04:05:24.555Z,15.04
2019-04-23T04:08:04.514Z,14.89
2019-04-23T04:10:16.646Z,15.25
2019-04-23T04:13:06.691Z,15.34
2019-04-23T04:20:35.905Z,14.71
2019-04-23T04:23:10.683Z,14.90
2019-04-23T04:25:33.668Z,14.73
2019-04-23T04:30:41.004Z,14.79
2019-04-23T04:33:41.339Z,14.84
2019-04-23T04:35:57.889Z,14.65
2019-04-23T04:51:34.345Z,14.46
2019-04-23T04:56:16.754Z,14.58
2019-04-23T05:01:13.868Z,14.76
2019-04-23T05:03:36.588Z,14.88
2019-04-23T05:06:24.689Z,14.83
2019-04-23T05:16:24.310Z,15.14
2019-04-23T05:18:58.069Z,15.30
2019-04-23T05:21:26.924Z,15.43
2019-04-23T05:23:54.096Z,15.47
2019-04-23T05:26:26.497Z,15.49
2019-04-23T05:29:01.943Z,15.49
2019-04-23T05:31:23.274Z,15.69
2019-04-23T05:34:02.991Z,15.68
2019-04-23T05:39:08.988Z,15.49
2019-04-23T05:41:38.544Z,15.82
2019-04-23T05:43:59.516Z,16.17
2019-04-23T05:46:33.770Z,15.99
2019-04-23T05:49:09.245Z,16.29
2019-04-23T05:54:09.210Z,16.43
2019-04-23T06:04:17.658Z,16.99
2019-04-23T06:06:54.098Z,17.05
2019-04-23T06:09:14.061Z,17.03
2019-04-23T06:22:10.665Z,17.91
2019-04-23T06:24:24.898Z,18.59
2019-04-23T06:31:50.959Z,18.88
2019-04-23T06:34:26.524Z,18.58
2019-04-23T06:36:51.234Z,18.58
2019-04-23T06:39:23.912Z,18.79
2019-04-23T06:41:59.215Z,18.49
2019-04-23T06:44:35.847Z,18.30
2019-04-23T06:47:03.568Z,19.67
2019-04-23T06:54:45.932Z,19.18
2019-04-23T06:57:14.621Z,19.49
2019-04-23T06:59:39.061Z,20.27
2019-04-23T07:02:11.835Z,19.98
2019-04-23T07:04:49.854Z,20.54
2019-04-23T07:07:37.774Z,20.54
2019-04-23T07:09:51.640Z,20.36
2019-04-23T07:12:41.139Z,20.31
2019-04-23T07:14:59.559Z,20.38
2019-04-23T07:17:24.944Z,20.38
2019-04-23T07:19:58.418Z,20.81
2019-04-23T07:22:46.778Z,21.87
2019-04-23T07:25:03.080Z,21.50
2019-04-23T07:27:43.084Z,22.15
2019-04-23T07:32:36.002Z,23.31
2019-04-23T07:37:45.119Z,21.05
2019-04-23T07:43:08.360Z,22.47
2019-04-23T07:46:10.405Z,24.19
2019-04-23T07:48:24.298Z,24.05
2019-04-23T07:50:58.992Z,24.05
2019-04-23T07:53:40.102Z,23.11
2019-04-23T07:56:08.710Z,22.98
2019-04-23T07:58:33.913Z,25.23
2019-04-23T08:01:11.250Z,24.87
2019-04-23T08:03:45.188Z,25.37
2019-04-23T08:06:21.692Z,25.05
2019-04-23T08:08:43.905Z,24.26
2019-04-23T08:16:32.993Z,27.79
2019-04-23T08:21:22.734Z,27.29
2019-04-23T08:24:16.978Z,29.07
2019-04-23T08:27:04.617Z,29.66
2019-04-23T08:29:30.940Z,31.29
2019-04-23T08:39:43.376Z,32.45
2019-04-23T08:45:10.732Z,32.95
2019-04-23T08:49:43.543Z,30.64
2019-04-23T08:52:14.252Z,31.48
2019-04-23T08:54:48.427Z,30.48
2019-04-23T08:57:27.344Z,31.27
2019-04-23T08:59:44.064Z,30.09
2019-04-23T09:04:51.569Z,30.70
2019-04-23T09:07:20.535Z,30.70
2019-04-23T09:09:51.020Z,31.80
2019-04-23T09:14:53.854Z,32.27
2019-04-23T09:17:21.178Z,32.61
2019-04-23T09:20:07.137Z,32.46
2019-04-23T09:22:34.685Z,32.46
2019-04-23T09:24:57.418Z,33.06
2019-04-23T09:27:31.202Z,35.17
2019-04-23T09:43:34.577Z,36.25
2019-04-23T09:46:18.014Z,32.62
2019-04-23T09:48:51.153Z,35.09
2019-04-23T09:51:17.352Z,35.03
2019-04-23T09:53:58.022Z,36.37
2019-04-23T09:56:19.865Z,37.04
2019-04-23T09:58:51.427Z,37.02
2019-04-23T10:01:25.934Z,37.05
2019-04-23T10:03:50.545Z,36.75
2019-04-23T10:06:14.541Z,34.27
2019-04-23T10:08:46.432Z,32.48
2019-04-23T10:11:11.318Z,35.38
2019-04-23T10:13:40.914Z,35.38
2019-04-23T10:16:12.302Z,35.82
2019-04-23T10:18:41.481Z,36.65
2019-04-23T10:21:11.192Z,35.37
2019-04-23T10:23:41.224Z,35.37
2019-04-23T10:26:10.391Z,35.34
2019-04-23T10:28:47.759Z,33.70
2019-04-23T10:31:16.868Z,32.97
2019-04-23T10:33:46.282Z,31.87
2019-04-23T10:36:19.438Z,32.94
2019-04-23T10:38:52.621Z,35.03
2019-04-23T10:41:18.233Z,35.03
2019-04-23T10:43:54.358Z,35.00
2019-04-23T10:47:12.284Z,34.75
2019-04-23T10:49:53.193Z,35.25
2019-04-23T10:52:26.110Z,35.25
2019-04-23T10:54:45.295Z,34.56
2019-04-23T11:04:57.607Z,35.13
2019-04-23T11:07:31.360Z,36.08
2019-04-23T11:10:04.440Z,36.71
2019-04-23T11:12:44.361Z,36.43
2019-04-23T11:15:32.438Z,36.34
2019-04-23T11:17:49.866Z,36.07
2019-04-23T11:20:30.386Z,35.65
2019-04-23T11:22:48.081Z,34.27
2019-04-23T11:28:05.687Z,35.62
2019-04-23T11:30:36.141Z,35.02
2019-04-23T11:38:39.410Z,37.78
2019-04-23T11:40:38.367Z,37.74
2019-04-23T11:43:14.826Z,40.00
2019-04-23T11:45:50.670Z,41.40
2019-04-23T11:51:21.825Z,43.08
2019-04-23T11:53:24.147Z,43.26
2019-04-23T11:55:58.972Z,43.26
2019-04-23T11:58:20.522Z,42.54
2019-04-23T12:01:34.777Z,41.19
2019-04-23T12:03:56.913Z,38.74
2019-04-23T12:06:31.290Z,39.16
2019-04-23T12:09:18.589Z,41.34
2019-04-23T12:14:40.526Z,41.10
2019-04-23T12:17:22.692Z,41.60
2019-04-23T12:22:18.056Z,42.12
2019-04-23T12:25:04.102Z,42.12
2019-04-23T12:40:15.667Z,41.03
2019-04-23T12:47:53.518Z,41.59
2019-04-23T12:50:41.868Z,40.91
2019-04-23T12:52:47.227Z,41.10
2019-04-23T12:55:23.294Z,41.09
2019-04-23T12:58:03.421Z,40.46
2019-04-23T13:00:20.836Z,40.38
2019-04-23T13:02:52.686Z,39.49
2019-04-23T13:05:31.873Z,39.04
2019-04-23T13:07:55.667Z,32.00
2019-04-23T13:10:28.297Z,30.95
2019-04-23T13:17:54.201Z,29.79
2019-04-23T13:20:27.984Z,28.71
2019-04-23T13:25:47.316Z,28.96
2019-04-23T13:33:27.960Z,27.89
2019-04-23T13:38:28.606Z,27.29
2019-04-23T13:48:20.370Z,27.74
2019-04-23T13:51:00.210Z,29.28
2019-04-23T13:56:05.083Z,29.45
2019-04-23T13:58:39.476Z,28.59
2019-04-23T14:03:42.868Z,29.42
2019-04-23T14:06:18.410Z,29.25
2019-04-23T14:11:21.580Z,28.80
2019-04-23T14:13:49.629Z,28.42
2019-04-23T14:18:56.187Z,27.77
2019-04-23T14:21:20.439Z,26.90
2019-04-23T14:24:03.420Z,26.90
2019-04-23T14:26:26.015Z,27.55
2019-04-23T14:30:05.190Z,27.04
2019-04-23T14:35:11.471Z,26.88
2019-04-23T14:37:40.952Z,26.81
2019-04-23T14:40:23.935Z,26.81
2019-04-23T14:42:56.170Z,27.08
2019-04-23T14:48:00.273Z,26.58
2019-04-23T14:50:32.087Z,26.28
2019-04-23T14:53:09.752Z,25.80
2019-04-23T14:58:10.447Z,26.42
2019-04-23T15:00:41.625Z,26.46
2019-04-23T15:03:08.453Z,26.41
2019-04-23T15:05:51.778Z,26.53
2019-04-23T15:08:15.626Z,26.32
2019-04-23T15:11:05.001Z,26.40
2019-04-23T15:13:18.766Z,26.57
2019-04-23T15:15:48.834Z,26.06
2019-04-23T15:18:35.345Z,25.95
2019-04-23T15:21:25.598Z,26.27
2019-04-23T15:23:51.529Z,26.27
2019-04-23T15:27:07.800Z,25.89
2019-04-23T15:28:13.168Z,25.66
2019-04-23T15:31:10.302Z,25.43
2019-04-23T15:33:49.142Z,25.62
2019-04-23T15:38:55.866Z,25.77
2019-04-23T15:41:15.264Z,25.77
2019-04-23T15:43:52.086Z,25.64
2019-04-23T15:46:21.047Z,25.42
2019-04-23T15:48:57.655Z,25.56
2019-04-23T15:51:20.141Z,24.92
2019-04-23T15:53:48.567Z,25.03
2019-04-23T15:56:33.010Z,25.31
2019-04-23T15:59:07.580Z,25.31
2019-04-23T16:03:27.500Z,24.71
2019-04-23T16:05:57.319Z,24.86
2019-04-23T16:11:41.182Z,25.07
2019-04-23T16:14:18.589Z,25.39
2019-04-23T16:16:39.005Z,25.39
2019-04-23T16:19:24.470Z,25.08
2019-04-23T16:31:49.536Z,25.71
2019-04-23T16:34:29.280Z,25.71
2019-04-23T16:37:02.154Z,26.04
2019-04-23T16:39:21.570Z,25.46
2019-04-23T16:42:02.247Z,25.62
2019-04-23T16:44:38.171Z,25.62
2019-04-23T16:49:58.353Z,25.20
2019-04-23T16:52:09.689Z,25.28
2019-04-23T16:54:41.628Z,25.27
2019-04-23T16:57:22.610Z,25.51
2019-04-23T16:59:48.661Z,25.80
2019-04-23T17:02:14.801Z,25.80
2019-04-23T17:07:08.459Z,25.50
2019-04-23T17:12:16.183Z,25.65
2019-04-23T17:14:48.045Z,25.08
2019-04-23T17:17:15.626Z,25.34
2019-04-23T17:19:47.192Z,25.32
2019-04-23T17:22:31.279Z,25.34
2019-04-23T17:24:54.083Z,25.35
2019-04-23T17:27:24.079Z,25.16
2019-04-23T17:29:58.869Z,25.32
2019-04-23T17:32:36.602Z,25.05
2019-04-23T17:35:17.588Z,25.05
2019-04-23T17:37:53.759Z,25.11
2019-04-23T17:40:17.462Z,24.98
2019-04-23T17:43:00.235Z,25.25
2019-04-23T17:45:32.372Z,25.01
2019-04-23T17:51:11.564Z,24.62
2019-04-23T17:53:29.731Z,24.31
2019-04-23T17:58:34.198Z,24.24
2019-04-23T18:03:57.339Z,24.09
2019-04-23T18:09:02.401Z,24.10
2019-04-23T18:11:35.769Z,23.82
2019-04-23T18:16:35.423Z,23.32
2019-04-23T18:24:54.176Z,23.08
2019-04-23T18:27:19.137Z,23.08
2019-04-23T18:29:56.324Z,23.01
2019-04-23T18:32:47.926Z,22.94
2019-04-23T18:37:37.599Z,22.78
2019-04-23T18:40:04.296Z,22.54
2019-04-23T18:45:20.265Z,22.43
2019-04-23T18:47:47.507Z,22.46
2019-04-23T18:50:24.703Z,22.64
2019-04-23T18:53:00.688Z,22.72
2019-04-23T18:55:29.506Z,22.35
2019-04-23T18:57:55.367Z,22.39
2019-04-23T19:00:24.863Z,22.25
2019-04-23T19:05:58.686Z,22.06
2019-04-23T19:11:40.338Z,21.99
2019-04-23T19:19:11.601Z,21.53
2019-04-23T19:22:07.136Z,21.53
2019-04-23T19:24:13.815Z,21.50
2019-04-23T19:27:03.328Z,21.57
2019-04-23T19:29:21.295Z,21.46
2019-04-23T19:31:55.370Z,21.46
2019-04-23T19:34:37.930Z,21.04
2019-04-23T19:36:59.426Z,21.04
2019-04-23T19:47:09.613Z,20.86
2019-04-23T19:49:36.896Z,20.91
2019-04-23T19:52:03.170Z,20.85
2019-04-23T19:54:52.622Z,20.78
2019-04-23T19:57:11.889Z,20.88
2019-04-23T19:59:45.035Z,20.60
2019-04-23T20:02:18.592Z,20.52
2019-04-23T20:05:00.967Z,20.35
2019-04-23T20:12:16.401Z,20.28
2019-04-23T20:14:48.911Z,20.42
2019-04-23T20:19:48.172Z,20.37
2019-04-23T20:22:25.592Z,20.48
2019-04-23T20:30:21.298Z,20.18
2019-04-23T20:44:43.301Z,19.98
2019-04-23T20:49:40.184Z,19.81
2019-04-23T20:54:58.429Z,19.56
2019-04-23T20:57:31.623Z,19.27
2019-04-23T21:00:01.637Z,19.27
2019-04-23T21:05:33.219Z,19.60
2019-04-23T21:08:22.351Z,19.68
2019-04-23T21:10:55.592Z,19.62
2019-04-23T21:13:28.614Z,19.49
2019-04-23T21:15:45.746Z,19.49
2019-04-23T21:20:56.150Z,19.20
2019-04-23T21:23:21.144Z,18.99
2019-04-23T21:25:50.670Z,18.84
2019-04-23T21:31:09.027Z,18.84
2019-04-23T21:36:43.411Z,18.57
2019-04-23T21:44:13.451Z,18.35
2019-04-23T21:49:18.072Z,18.30
2019-04-23T21:54:08.003Z,18.20
2019-04-23T21:56:42.975Z,18.22
2019-04-23T21:59:07.057Z,18.31
2019-04-23T22:01:55.784Z,18.32
2019-04-23T22:04:35.702Z,18.38
2019-04-23T22:06:53.626Z,18.11
2019-04-23T22:09:26.934Z,18.02
2019-04-23T22:12:03.490Z,17.86
2019-04-23T22:14:33.790Z,17.85
2019-04-23T22:17:02.829Z,17.97
2019-04-23T22:19:38.228Z,17.66
2019-04-23T22:22:04.001Z,17.66
2019-04-23T22:24:46.531Z,17.63
2019-04-23T22:27:12.751Z,17.41
2019-04-23T22:29:43.557Z,17.59
2019-04-23T22:32:02.817Z,17.71
2019-04-23T22:34:50.495Z,17.90
2019-04-23T22:39:54.189Z,17.61
2019-04-23T22:42:36.364Z,16.88
2019-04-23T22:47:13.890Z,16.55
2019-04-23T22:55:02.395Z,16.20
2019-04-23T22:57:55.996Z,16.03
2019-04-23T23:05:56.213Z,15.60
2019-04-23T23:08:45.880Z,15.37
2019-04-23T23:16:02.015Z,15.04
2019-04-23T23:18:22.938Z,15.00
2019-04-23T23:21:02.157Z,15.04
2019-04-23T23:23:21.298Z,15.04
2019-04-23T23:26:02.781Z,15.02
2019-04-23T23:28:38.069Z,15.00
2019-04-23T23:33:30.184Z,15.12
2019-04-23T23:38:47.707Z,14.44
2019-04-23T23:41:14.123Z,14.58
2019-04-23T23:43:31.648Z,14.49
2019-04-23T23:48:41.802Z,14.45
2019-04-23T23:51:17.052Z,14.29
2019-04-23T23:58:58.280Z,13.98
